Time;durP1;ratioP1;P1;durP2;ratioP2;P2;SDS_P1;SDS_P2;PMS_P1;PMS_P2;Temp;Humidity;BMP_temperature;BMP_pressure;BME280_temperature;BME280_humidity;BME280_pressure;Samples;Min_cycle;Max_cycle;Signal;HPM_P1;HPM_P2
2021/12/11 00:00:26;;;;;;;66.20;37.90;;;;;;;8.01;60.47;99951.09;4770594;29;120769;-91
2021/12/11 00:03:13;;;;;;;50.13;30.40;;;;;;;8.06;60.21;99951.75;4785812;29;120402;-91
2021/12/11 00:05:49;;;;;;;72.05;40.85;;;;;;;8.23;60.55;99980.31;4756114;29;118599;-90
2021/12/11 00:08:20;;;;;;;71.47;41.03;;;;;;;8.39;60.60;99999.22;4754915;29;120557;-89
2021/12/11 00:11:02;;;;;;;68.45;40.53;;;;;;;8.08;60.78;99958.28;4763884;29;123856;-90
2021/12/11 00:13:36;;;;;;;69.38;41.28;;;;;;;8.52;60.29;100043.59;4783552;29;119078;-90
2021/12/11 00:16:04;;;;;;;68.97;40.67;;;;;;;8.29;60.49;100019.50;4774258;29;121046;-90
2021/12/11 00:18:31;;;;;;;74.93;41.67;;;;;;;8.24;60.57;100014.63;4786093;29;120550;-91
2021/12/11 00:21:02;;;;;;;69.30;41.25;;;;;;;8.36;59.91;100043.84;4769643;29;120834;-89
2021/12/11 00:24:11;;;;;;;73.25;43.00;;;;;;;8.06;60.04;100009.84;4764964;29;119583;-90
2021/12/11 00:26:41;;;;;;;76.50;42.10;;;;;;;8.34;60.83;100051.72;4770007;29;118639;-91
2021/12/11 00:29:09;;;;;;;76.50;42.80;;;;;;;8.04;60.35;100025.16;4769441;29;122166;-91
2021/12/11 00:31:38;;;;;;;75.68;42.35;;;;;;;8.09;61.12;100030.81;4768184;29;121786;-90
2021/12/11 00:34:10;;;;;;;77.78;44.85;;;;;;;8.18;61.08;100049.19;4769103;29;120365;-90
2021/12/11 00:36:42;;;;;;;76.07;44.33;;;;;;;7.73;61.03;99976.78;4756324;29;120921;-90
2021/12/11 00:39:13;;;;;;;73.45;42.55;;;;;;;7.74;60.62;99974.78;4769527;29;120443;-90
2021/12/11 00:41:44;;;;;;;81.03;45.40;;;;;;;7.76;61.22;99973.13;4784210;29;121073;-90
2021/12/11 00:44:09;;;;;;;80.85;44.90;;;;;;;8.25;60.72;100057.13;4767956;29;121747;-91
2021/12/11 00:46:36;;;;;;;78.75;44.95;;;;;;;7.67;61.05;99970.38;4776460;29;118601;-91
2021/12/11 00:49:14;;;;;;;75.78;42.72;;;;;;;7.87;60.78;100006.28;4763551;29;120841;-90
2021/12/11 00:51:48;;;;;;;74.85;43.30;;;;;;;8.30;61.36;100067.47;4780600;29;120132;-90
2021/12/11 00:54:13;;;;;;;78.18;43.00;;;;;;;8.20;60.99;100047.53;4768035;29;118564;-90
2021/12/11 00:56:45;;;;;;;66.25;39.08;;;;;;;7.99;60.81;100027.25;4772727;29;120479;-91
2021/12/11 00:59:14;;;;;;;71.20;41.53;;;;;;;8.12;60.32;100051.75;4786065;29;122800;-90
2021/12/11 01:01:49;;;;;;;68.75;40.63;;;;;;;7.94;60.55;100044.22;4751155;29;120721;-90
2021/12/11 01:04:26;;;;;;;73.93;41.83;;;;;;;7.76;60.21;100035.94;4782242;29;123853;-90
2021/12/11 01:06:56;;;;;;;66.65;38.42;;;;;;;7.88;61.18;100058.91;4766406;29;121437;-91
2021/12/11 01:09:24;;;;;;;70.10;40.67;;;;;;;7.83;61.02;100046.59;4786014;29;119332;-91
2021/12/11 01:12:00;;;;;;;68.53;40.28;;;;;;;8.26;60.71;100119.50;4769719;29;121935;-91
2021/12/11 01:14:39;;;;;;;69.78;40.50;;;;;;;7.80;61.24;100057.63;4757598;29;118574;-89
2021/12/11 01:17:21;;;;;;;73.95;42.17;;;;;;;8.26;61.15;100135.13;4769866;29;123514;-89
2021/12/11 01:19:59;;;;;;;74.93;42.08;;;;;;;7.67;60.72;100049.53;4755946;29;121661;-91
2021/12/11 01:22:34;;;;;;;73.95;43.75;;;;;;;7.83;61.37;100084.84;4789369;29;119152;-90
2021/12/11 01:25:32;;;;;;;75.13;43.72;;;;;;;8.29;61.08;100143.22;4754527;29;121675;-90
2021/12/11 01:28:01;;;;;;;74.93;42.67;;;;;;;7.78;60.47;100069.00;4786390;29;118534;-91
2021/12/11 01:30:33;;;;;;;72.43;41.67;;;;;;;7.79;61.36;100070.53;4772434;29;119256;-91
2021/12/11 01:33:00;;;;;;;66.82;37.72;;;;;;;8.15;61.09;100123.84;4770929;29;121674;-89
2021/12/11 01:35:27;;;;;;;71.63;40.97;;;;;;;8.28;60.29;100147.16;4755362;29;119203;-90
2021/12/11 01:38:05;;;;;;;68.50;40.95;;;;;;;8.11;61.12;100117.75;4751193;29;121025;-91
2021/12/11 01:40:31;;;;;;;76.15;42.72;;;;;;;8.30;60.64;100157.66;4768655;29;121822;-90
2021/12/11 01:43:03;;;;;;;72.75;41.70;;;;;;;8.08;60.42;100113.97;4779215;29;118446;-90
2021/12/11 01:45:34;;;;;;;79.10;42.58;;;;;;;7.80;60.93;100076.75;4791488;29;119062;-89
2021/12/11 01:48:01;;;;;;;74.32;41.92;;;;;;;8.38;60.68;100172.59;4774485;29;120437;-90
2021/12/11 01:50:32;;;;;;;71.70;41.90;;;;;;;8.37;60.34;100168.34;4772975;29;119890;-90
2021/12/11 01:53:07;;;;;;;70.07;40.58;;;;;;;8.39;60.16;100174.13;4772290;29;121778;-90
2021/12/11 01:55:47;;;;;;;74.22;41.90;;;;;;;8.03;60.29;100125.44;4757980;29;118549;-89
2021/12/11 01:58:23;;;;;;;73.80;42.13;;;;;;;8.26;60.68;100159.72;4772478;29;124172;-91
2021/12/11 02:00:54;;;;;;;69.60;40.33;;;;;;;8.21;60.45;100152.13;4788137;29;120345;-90
2021/12/11 02:03:24;;;;;;;70.07;41.65;;;;;;;8.21;60.86;100154.84;4757570;29;119288;-90
2021/12/11 02:05:50;;;;;;;71.28;41.08;;;;;;;8.06;60.22;100143.69;4787956;29;121325;-91
2021/12/11 02:08:27;;;;;;;67.93;41.35;;;;;;;7.90;60.71;100116.56;4777244;29;121745;-91
2021/12/11 02:11:04;;;;;;;69.18;41.05;;;;;;;8.12;60.23;100152.81;4768550;29;119512;-90
2021/12/11 02:13:44;;;;;;;72.10;40.45;;;;;;;8.13;60.59;100159.06;4768173;29;122634;-90
2021/12/11 02:16:18;;;;;;;71.13;41.75;;;;;;;8.16;60.66;100166.34;4789398;29;119225;-90
2021/12/11 02:18:46;;;;;;;72.95;40.67;;;;;;;8.17;60.25;100178.81;4787124;29;119478;-89
2021/12/11 02:21:16;;;;;;;73.25;41.47;;;;;;;8.48;60.69;100223.34;4771737;29;121697;-90
2021/12/11 02:23:50;;;;;;;71.63;40.75;;;;;;;7.90;60.11;100136.44;4787160;29;119328;-89
2021/12/11 02:26:16;;;;;;;69.43;41.70;;;;;;;8.39;60.16;100226.03;4757225;29;120983;-90
2021/12/11 02:28:53;;;;;;;68.95;39.97;;;;;;;8.41;59.83;100229.09;4767872;29;120399;-90
2021/12/11 02:31:28;;;;;;;73.50;42.08;;;;;;;8.39;60.51;100239.69;4791093;29;118534;-90
2021/12/11 02:34:23;;;;;;;68.03;40.97;;;;;;;8.01;60.43;100193.41;4785320;29;121595;-90
2021/12/11 02:37:17;;;;;;;71.50;41.30;;;;;;;8.07;60.57;100207.28;4790931;29;118395;-90
2021/12/11 02:39:54;;;;;;;71.03;40.53;;;;;;;8.36;60.33;100248.78;4756810;29;121237;-90
2021/12/11 02:42:29;;;;;;;73.68;40.63;;;;;;;8.17;59.94;100219.78;4783753;29;120068;-90
2021/12/11 02:45:09;;;;;;;73.25;41.83;;;;;;;7.87;60.54;100181.03;4771219;29;118562;-91
2021/12/11 02:47:49;;;;;;;69.50;39.67;;;;;;;7.76;60.14;100164.25;4766569;29;119258;-90
2021/12/11 02:50:25;;;;;;;67.00;40.95;;;;;;;7.99;60.11;100210.25;4772173;29;121647;-91
2021/12/11 02:53:19;;;;;;;70.45;39.67;;;;;;;7.78;60.49;100164.56;4759343;29;119328;-90
2021/12/11 02:55:56;;;;;;;72.35;40.50;;;;;;;8.07;60.15;100205.31;4784984;29;122478;-90
2021/12/11 02:58:34;;;;;;;65.50;40.10;;;;;;;7.87;60.70;100170.09;4767879;29;119389;-90
2021/12/11 03:01:29;;;;;;;71.43;41.28;;;;;;;8.26;60.50;100238.97;4788253;29;119397;-91
2021/12/11 03:04:11;;;;;;;71.22;40.53;;;;;;;7.76;60.15;100168.94;4778020;29;120555;-89
2021/12/11 03:06:41;;;;;;;72.43;41.63;;;;;;;7.68;60.49;100179.34;4769424;29;118939;-91
2021/12/11 03:09:09;;;;;;;68.05;39.45;;;;;;;8.11;60.54;100238.72;4777185;29;120994;-91
2021/12/11 03:11:35;;;;;;;71.95;41.00;;;;;;;7.71;60.46;100197.56;4784327;29;121054;-90
2021/12/11 03:14:04;;;;;;;72.75;40.85;;;;;;;7.70;60.18;100193.31;4771594;29;119466;-89
2021/12/11 03:16:35;;;;;;;73.25;41.03;;;;;;;7.70;60.33;100206.97;4760420;29;120780;-89
2021/12/11 03:19:06;;;;;;;67.65;39.33;;;;;;;7.42;60.56;100169.72;4755633;29;119392;-90
2021/12/11 03:21:32;;;;;;;71.68;39.22;;;;;;;7.95;60.28;100252.53;4774120;29;120866;-90
2021/12/11 03:23:57;;;;;;;69.40;39.13;;;;;;;7.54;60.53;100185.28;4783787;29;119799;-89
2021/12/11 03:26:24;;;;;;;70.20;40.72;;;;;;;7.63;60.78;100205.25;4771592;29;120255;-89
2021/12/11 03:28:50;;;;;;;69.93;39.15;;;;;;;7.90;60.78;100250.38;4785174;29;118692;-90
2021/12/11 03:31:16;;;;;;;69.38;39.38;;;;;;;7.87;60.54;100257.47;4770035;29;121688;-90
2021/12/11 03:33:46;;;;;;;66.93;38.08;;;;;;;7.51;60.65;100219.66;4751597;29;118665;-90
2021/12/11 03:36:14;;;;;;;65.88;37.53;;;;;;;7.37;60.59;100207.28;4770733;29;121166;-90
2021/12/11 03:38:45;;;;;;;68.43;38.88;;;;;;;7.73;59.88;100271.59;4773303;29;120227;-90
2021/12/11 03:41:11;;;;;;;68.78;38.33;;;;;;;7.42;59.46;100237.94;4769806;29;121184;-90
2021/12/11 03:43:37;;;;;;;72.63;41.58;;;;;;;7.28;60.10;100226.25;4769977;29;122836;-91
2021/12/11 03:46:09;;;;;;;67.95;40.28;;;;;;;7.34;60.22;100240.91;4772220;29;118673;-90
2021/12/11 03:48:46;;;;;;;71.68;39.75;;;;;;;7.24;60.14;100233.78;4769242;29;121012;-89
2021/12/11 03:51:15;;;;;;;66.20;38.78;;;;;;;7.46;60.16;100285.72;4750903;29;119929;-90
2021/12/11 03:53:41;;;;;;;74.05;40.90;;;;;;;7.09;60.44;100240.88;4771397;29;119790;-90
2021/12/11 03:56:10;;;;;;;73.78;39.75;;;;;;;6.83;59.69;100209.34;4772049;29;120999;-90
2021/12/11 03:58:37;;;;;;;68.93;38.83;;;;;;;6.84;59.86;100230.72;4784820;29;120268;-89
2021/12/11 04:04:26;;;;;;;69.80;39.75;;;;;;;7.17;60.39;100294.03;4756453;29;120626;-93
2021/12/11 04:06:53;;;;;;;65.10;37.75;;;;;;;7.10;59.98;100299.72;4744773;29;119633;-92
2021/12/11 04:09:19;;;;;;;71.30;38.63;;;;;;;7.06;60.26;100296.31;4713932;29;121057;-91
2021/12/11 04:11:48;;;;;;;64.90;37.10;;;;;;;6.65;60.42;100245.34;4740014;29;122781;-91
2021/12/11 04:14:21;;;;;;;68.32;37.92;;;;;;;6.61;60.04;100250.88;4743615;29;119359;-91
2021/12/11 04:16:49;;;;;;;68.57;38.80;;;;;;;6.59;60.39;100247.06;4726220;29;122106;-92
2021/12/11 04:19:16;;;;;;;61.03;35.25;;;;;;;6.86;59.70;100296.50;4736972;29;120542;-91
2021/12/11 04:21:42;;;;;;;66.65;36.75;;;;;;;6.62;59.72;100266.03;4741375;29;119489;-90
2021/12/11 04:24:12;;;;;;;60.70;35.35;;;;;;;6.41;59.75;100251.06;4733272;29;122198;-91
2021/12/11 04:26:38;;;;;;;65.68;37.35;;;;;;;6.59;59.46;100285.97;4741793;29;119349;-91
2021/12/11 04:29:08;;;;;;;68.68;38.08;;;;;;;6.65;59.63;100308.78;4737962;29;120669;-90
2021/12/11 04:31:36;;;;;;;73.18;39.58;;;;;;;6.50;60.08;100285.06;4740983;29;121711;-92
2021/12/11 04:34:06;;;;;;;70.80;39.13;;;;;;;6.40;59.99;100270.56;4729052;29;119197;-91
2021/12/11 04:36:37;;;;;;;74.13;40.25;;;;;;;6.01;60.50;100215.19;4723936;29;121077;-91
2021/12/11 04:39:08;;;;;;;69.70;39.33;;;;;;;6.51;60.99;100294.78;4727601;29;123085;-92
2021/12/11 04:41:43;;;;;;;69.13;39.80;;;;;;;6.46;60.28;100291.38;4744005;29;120047;-92
2021/12/11 04:44:15;;;;;;;70.75;39.13;;;;;;;6.49;60.46;100287.03;4740692;29;119837;-89
2021/12/11 04:46:41;;;;;;;71.50;39.92;;;;;;;6.27;60.85;100258.84;4731208;29;122764;-92
2021/12/11 04:49:14;;;;;;;73.00;39.97;;;;;;;6.39;61.43;100277.97;4755715;29;119521;-92
2021/12/11 04:52:02;;;;;;;72.80;40.13;;;;;;;6.21;61.49;100258.63;4728284;29;120525;-90
2021/12/11 05:10:33;;;;;;;74.95;40.78;;;;;;;6.45;61.68;100338.13;4756280;29;121297;-91
2021/12/11 05:12:59;;;;;;;72.10;39.67;;;;;;;6.25;61.50;100308.31;4742289;29;121840;-92
2021/12/11 05:15:32;;;;;;;73.05;40.17;;;;;;;6.47;61.84;100349.38;4728969;29;119448;-90
2021/12/11 05:18:03;;;;;;;73.50;40.33;;;;;;;6.47;61.51;100349.38;4745861;29;120336;-91
2021/12/11 05:20:34;;;;;;;80.93;41.95;;;;;;;6.42;61.86;100341.72;4760186;29;120454;-92
2021/12/11 05:23:00;;;;;;;79.07;41.85;;;;;;;6.40;61.93;100339.44;4744690;29;119091;-92
2021/12/11 05:25:27;;;;;;;81.72;42.25;;;;;;;6.47;62.08;100354.81;4729422;29;121084;-92
2021/12/11 05:27:53;;;;;;;86.32;45.25;;;;;;;6.45;62.52;100349.81;4729453;29;121661;-91
2021/12/11 05:30:25;;;;;;;84.30;44.60;;;;;;;6.53;62.69;100353.09;4729711;29;119774;-91
2021/12/11 05:33:00;;;;;;;87.35;44.00;;;;;;;6.51;62.84;100350.03;4741941;29;121788;-91
2021/12/11 05:35:31;;;;;;;79.28;42.53;;;;;;;6.65;62.80;100367.97;4740424;29;122493;-91
2021/12/11 05:37:58;;;;;;;79.38;42.83;;;;;;;6.69;62.98;100363.19;4737679;29;121057;-92
2021/12/11 05:40:26;;;;;;;82.03;43.08;;;;;;;6.76;63.13;100371.94;4739257;29;119193;-90
2021/12/11 05:42:52;;;;;;;80.88;43.05;;;;;;;6.75;63.00;100367.69;4744208;29;120464;-93
2021/12/11 05:45:18;;;;;;;88.68;44.50;;;;;;;6.83;62.99;100376.41;4729077;29;121805;-92
2021/12/11 05:47:45;;;;;;;79.93;41.95;;;;;;;6.84;62.27;100367.03;4743589;29;120271;-91
2021/12/11 05:50:16;;;;;;;82.20;43.33;;;;;;;6.88;62.64;100372.41;4729820;29;119503;-92
2021/12/11 05:52:47;;;;;;;77.55;42.17;;;;;;;6.87;62.57;100368.94;4744546;29;119217;-91
2021/12/11 05:55:16;;;;;;;80.60;42.80;;;;;;;6.86;62.75;100370.13;4745001;29;119481;-92
2021/12/11 05:57:51;;;;;;;76.43;41.65;;;;;;;6.94;62.29;100373.41;4746674;29;119506;-91
2021/12/11 06:00:30;;;;;;;76.88;40.78;;;;;;;6.97;62.27;100383.44;4730527;29;120181;-91
2021/12/11 06:02:59;;;;;;;75.47;39.28;;;;;;;6.90;62.00;100375.47;4726518;29;120063;-92
2021/12/11 06:05:26;;;;;;;78.13;40.65;;;;;;;6.89;61.91;100382.88;4727088;29;119493;-90
2021/12/11 06:07:52;;;;;;;77.55;40.15;;;;;;;6.77;61.59;100370.72;4742770;29;121406;-92
2021/12/11 06:10:20;;;;;;;68.72;38.55;;;;;;;6.85;61.46;100381.44;4744753;29;119554;-92
2021/12/11 06:12:52;;;;;;;77.60;41.05;;;;;;;6.82;60.82;100398.66;4743363;29;120703;-92
2021/12/11 06:15:19;;;;;;;75.03;40.60;;;;;;;6.76;60.88;100404.63;4746385;29;122050;-92
2021/12/11 06:17:46;;;;;;;77.65;40.28;;;;;;;6.63;60.52;100411.25;4742464;29;121266;-92
2021/12/11 06:20:16;;;;;;;81.32;40.55;;;;;;;6.36;60.98;100384.28;4741295;29;120348;-92
2021/12/11 06:22:42;;;;;;;74.43;39.70;;;;;;;6.60;61.31;100436.59;4727100;29;119528;-92
2021/12/11 06:25:20;;;;;;;76.82;39.58;;;;;;;6.43;61.35;100405.91;4756326;29;122735;-92
2021/12/11 06:27:46;;;;;;;71.18;38.78;;;;;;;6.52;61.12;100425.13;4741455;29;121609;-92
2021/12/11 06:30:14;;;;;;;76.47;40.20;;;;;;;6.53;61.28;100429.38;4739182;29;119122;-92
2021/12/11 06:32:41;;;;;;;78.35;40.47;;;;;;;6.22;61.30;100384.66;4754715;29;119743;-92
2021/12/11 06:35:23;;;;;;;76.25;39.75;;;;;;;6.50;61.59;100427.53;4727311;29;120592;-92
2021/12/11 06:37:49;;;;;;;75.43;40.70;;;;;;;6.45;61.88;100415.19;4761618;29;119518;-91
2021/12/11 06:40:15;;;;;;;68.70;38.25;;;;;;;6.50;61.95;100419.34;4726902;29;122943;-91
2021/12/11 06:42:41;;;;;;;72.53;39.38;;;;;;;6.45;61.50;100414.44;4737261;29;119586;-91
2021/12/11 06:45:07;;;;;;;66.60;37.72;;;;;;;6.29;61.60;100376.31;4726566;29;121201;-92
2021/12/11 06:47:33;;;;;;;72.05;38.28;;;;;;;6.64;61.36;100440.03;4756423;29;121921;-91
2021/12/11 06:49:59;;;;;;;72.43;39.42;;;;;;;6.54;60.76;100439.09;4715104;29;119185;-92
2021/12/11 06:52:26;;;;;;;74.00;38.58;;;;;;;6.61;60.98;100457.97;4729997;29;121193;-94
2021/12/11 06:54:52;;;;;;;75.40;38.80;;;;;;;6.37;61.45;100411.09;4740840;29;120242;-92
2021/12/11 06:57:18;;;;;;;69.03;38.75;;;;;;;6.30;61.30;100411.28;4729097;29;119828;-93
2021/12/11 06:59:46;;;;;;;71.13;37.72;;;;;;;6.64;61.55;100453.66;4731135;29;120861;-91
2021/12/11 07:02:12;;;;;;;69.27;37.80;;;;;;;6.44;61.53;100429.25;4686062;29;1208107;-93
2021/12/11 07:04:44;;;;;;;71.30;38.63;;;;;;;6.61;61.42;100452.53;4740755;29;120738;-91
2021/12/11 07:07:17;;;;;;;63.90;35.47;;;;;;;6.74;61.38;100477.16;4728503;29;121404;-92
2021/12/11 07:09:47;;;;;;;70.95;37.38;;;;;;;6.65;61.16;100466.84;4725938;29;119870;-91
2021/12/11 07:12:14;;;;;;;73.30;37.45;;;;;;;6.74;61.72;100486.09;4729709;29;120942;-93
2021/12/11 07:14:39;;;;;;;67.45;37.80;;;;;;;6.56;60.98;100463.97;4727496;29;121595;-92
2021/12/11 07:17:05;;;;;;;66.80;36.45;;;;;;;6.69;61.18;100489.34;4726931;29;120409;-91
2021/12/11 07:19:33;;;;;;;68.32;37.00;;;;;;;6.70;61.12;100485.41;4729045;29;120225;-91
2021/12/11 07:21:59;;;;;;;71.32;37.42;;;;;;;6.43;61.04;100452.25;4739548;29;119222;-91
2021/12/11 07:24:32;;;;;;;71.35;38.95;;;;;;;6.23;60.99;100427.03;4743627;29;119925;-90
2021/12/11 07:27:01;;;;;;;72.32;37.72;;;;;;;6.69;61.36;100497.50;4725927;29;121737;-91
2021/12/11 07:29:27;;;;;;;62.58;33.65;;;;;;;6.68;60.30;100509.63;4739911;29;120063;-93
2021/12/11 07:31:53;;;;;;;71.00;37.67;;;;;;;6.65;60.94;100504.25;4742344;29;119355;-91
2021/12/11 07:34:20;;;;;;;70.85;38.78;;;;;;;6.52;61.22;100492.50;4736974;29;122188;-90
2021/12/11 07:36:46;;;;;;;73.47;39.60;;;;;;;6.61;61.33;100515.22;4741704;29;119393;-90
2021/12/11 07:39:15;;;;;;;71.60;40.10;;;;;;;6.44;61.25;100489.19;4726315;29;121253;-91
2021/12/11 07:41:41;;;;;;;66.97;38.08;;;;;;;6.62;61.64;100514.03;4746953;29;119091;-91
2021/12/11 07:44:10;;;;;;;72.78;39.55;;;;;;;6.53;61.01;100513.09;4743644;29;121053;-92
2021/12/11 07:46:36;;;;;;;69.93;39.17;;;;;;;6.35;61.57;100495.22;4725869;29;121466;-90
2021/12/11 07:49:04;;;;;;;67.93;38.00;;;;;;;6.20;61.54;100460.59;4741593;29;119683;-91
2021/12/11 07:51:32;;;;;;;69.93;36.95;;;;;;;6.70;61.15;100534.47;4743141;29;119287;-91
2021/12/11 07:53:58;;;;;;;64.00;35.58;;;;;;;6.64;61.17;100532.69;4739404;29;120221;-92
2021/12/11 07:56:24;;;;;;;66.63;37.60;;;;;;;6.44;60.88;100500.09;4729801;29;119485;-91
2021/12/11 07:58:53;;;;;;;70.28;38.42;;;;;;;6.66;61.10;100533.81;4751533;29;119373;-90
2021/12/11 08:01:19;;;;;;;68.13;38.63;;;;;;;6.66;61.24;100538.50;4749337;29;120239;-91
2021/12/11 08:03:48;;;;;;;76.93;40.35;;;;;;;6.49;61.80;100513.19;4726993;29;119487;-90
2021/12/11 08:06:18;;;;;;;72.78;38.70;;;;;;;6.70;61.54;100545.38;4724356;29;119903;-91
2021/12/11 08:08:45;;;;;;;68.72;38.28;;;;;;;6.42;61.47;100505.97;4751452;29;119375;-91
2021/12/11 08:11:19;;;;;;;74.38;40.25;;;;;;;6.40;61.90;100496.69;4742380;29;121379;-90
2021/12/11 08:13:50;;;;;;;79.82;42.25;;;;;;;6.58;61.75;100516.06;4728534;29;121895;-91
2021/12/11 08:16:21;;;;;;;78.32;41.28;;;;;;;6.48;61.95;100500.75;4730789;29;120598;-92
2021/12/11 08:18:47;;;;;;;76.70;41.45;;;;;;;6.85;62.30;100545.78;4731386;29;122188;-92
2021/12/11 08:21:18;;;;;;;75.55;41.42;;;;;;;6.55;62.17;100497.84;4745203;29;119864;-91
2021/12/11 08:23:46;;;;;;;76.75;42.08;;;;;;;6.72;61.98;100514.97;4732572;29;119698;-91
2021/12/11 08:26:19;;;;;;;84.40;43.42;;;;;;;6.96;62.17;100551.75;4749295;29;120524;-92
2021/12/11 08:28:50;;;;;;;79.13;41.88;;;;;;;6.76;62.39;100524.59;4760467;29;119406;-92
2021/12/11 08:31:18;;;;;;;81.75;42.03;;;;;;;6.53;62.26;100489.34;4726515;29;122057;-91
2021/12/11 08:33:44;;;;;;;70.85;40.33;;;;;;;6.70;61.96;100509.94;4752199;29;121584;-91
2021/12/11 08:36:10;;;;;;;74.20;39.65;;;;;;;6.84;61.48;100527.13;4731165;29;120630;-91
2021/12/11 08:38:36;;;;;;;69.75;39.17;;;;;;;7.09;61.67;100565.44;4759562;29;119409;-92
2021/12/11 08:41:07;;;;;;;69.65;38.80;;;;;;;6.90;61.48;100533.63;4761093;29;119876;-92
2021/12/11 08:43:32;;;;;;;70.32;39.78;;;;;;;6.60;61.53;100483.72;4731885;29;119409;-92
2021/12/11 08:46:09;;;;;;;71.53;39.38;;;;;;;6.92;61.21;100528.50;4731942;29;120826;-91
2021/12/11 08:48:42;;;;;;;71.30;41.10;;;;;;;6.87;61.98;100518.13;4735202;29;122748;-90
2021/12/11 08:51:14;;;;;;;76.05;41.83;;;;;;;7.11;62.12;100549.44;4734232;29;120940;-92
2021/12/11 08:53:43;;;;;;;77.45;41.47;;;;;;;7.15;62.05;100563.75;4730616;29;121859;-92
2021/12/11 08:56:10;;;;;;;73.38;40.60;;;;;;;7.27;62.02;100579.38;4744857;29;119323;-92
2021/12/11 08:58:41;;;;;;;73.63;38.83;;;;;;;6.90;62.11;100509.84;4734438;29;121416;-93
2021/12/11 09:01:06;;;;;;;73.47;39.35;;;;;;;7.49;61.94;100595.97;4758200;29;121910;-90
2021/12/11 09:03:37;;;;;;;73.30;39.95;;;;;;;7.18;61.79;100541.06;4747099;29;119504;-91
2021/12/11 09:06:06;;;;;;;67.22;39.60;;;;;;;7.59;61.72;100602.34;4754821;29;119802;-92
2021/12/11 09:08:43;;;;;;;68.90;38.83;;;;;;;7.60;61.97;100593.72;4749540;29;122937;-92
2021/12/11 09:11:18;;;;;;;70.47;40.05;;;;;;;7.64;61.59;100599.09;4731811;29;119929;-91
2021/12/11 09:13:43;;;;;;;;;;;;;;;7.68;61.83;100605.97;4729509;29;121664;-92
2021/12/11 09:16:18;;;;;;;75.97;41.63;;;;;;;7.36;61.61;100556.97;4732892;29;120800;-90
2021/12/11 09:18:50;;;;;;;79.38;42.33;;;;;;;7.49;62.01;100581.56;4729202;29;120790;-90
2021/12/11 09:21:27;;;;;;;74.40;41.70;;;;;;;7.45;62.32;100564.50;4727602;29;121771;-91
2021/12/11 09:24:04;;;;;;;78.18;40.95;;;;;;;7.53;62.09;100579.50;4748238;29;119250;-93
2021/12/11 09:26:54;;;;;;;74.70;41.65;;;;;;;7.81;62.26;100625.16;4742113;29;119686;-88
2021/12/11 09:29:25;;;;;;;74.30;41.20;;;;;;;7.90;62.32;100630.75;4744850;29;122085;-91
2021/12/11 09:32:30;;;;;;;70.40;39.17;;;;;;;7.83;62.23;100611.81;4717438;29;119503;-92
2021/12/11 09:35:13;;;;;;;72.65;40.05;;;;;;;8.01;62.19;100636.66;4751163;29;121612;-90
2021/12/11 09:37:40;;;;;;;67.28;38.35;;;;;;;8.08;62.25;100637.66;4730852;29;120273;-92
2021/12/11 09:40:18;;;;;;;78.40;41.72;;;;;;;8.09;62.20;100644.66;4734382;29;119529;-92
2021/12/11 09:42:44;;;;;;;73.78;40.90;;;;;;;8.13;62.08;100648.81;4725258;29;121722;-92
2021/12/11 09:45:20;;;;;;;77.75;41.80;;;;;;;8.18;62.48;100655.72;4746994;29;119265;-93
2021/12/11 09:47:51;;;;;;;69.55;41.88;;;;;;;8.20;62.11;100643.16;4741205;29;121056;-92
2021/12/11 09:50:22;;;;;;;75.93;41.63;;;;;;;8.22;62.61;100656.38;4744495;29;122001;-92
2021/12/11 09:52:49;;;;;;;72.30;40.00;;;;;;;8.24;62.47;100653.97;4745050;29;120049;-92
2021/12/11 09:55:20;;;;;;;72.32;40.72;;;;;;;8.27;62.05;100655.81;4747124;29;120039;-92
2021/12/11 09:57:52;;;;;;;66.53;38.93;;;;;;;8.20;62.28;100645.13;4744063;29;119850;-93
2021/12/11 10:00:49;;;;;;;69.43;39.83;;;;;;;8.32;62.20;100652.59;4759703;29;121003;-92
2021/12/11 10:03:18;;;;;;;68.40;38.80;;;;;;;8.43;62.31;100668.69;4736529;29;121901;-93
2021/12/11 10:05:55;;;;;;;70.30;38.28;;;;;;;8.32;62.47;100647.13;4744076;29;119449;-92
2021/12/11 10:08:31;;;;;;;67.72;38.05;;;;;;;8.50;62.53;100671.19;4729938;29;121059;-92
2021/12/11 10:11:21;;;;;;;64.38;37.15;;;;;;;8.53;62.09;100670.34;4747767;29;121440;-92
2021/12/11 10:13:55;;;;;;;66.47;37.75;;;;;;;8.52;62.34;100677.78;4743515;29;119189;-92
2021/12/11 10:16:29;;;;;;;65.25;39.50;;;;;;;8.56;61.52;100672.22;4713723;29;121012;-91
2021/12/11 10:18:55;;;;;;;64.57;39.42;;;;;;;8.60;62.28;100670.91;4746632;29;121811;-92
2021/12/11 10:21:28;;;;;;;73.95;39.80;;;;;;;8.59;61.56;100669.38;4741627;29;119783;-92
2021/12/11 10:23:57;;;;;;;69.53;39.08;;;;;;;8.38;62.02;100639.94;4743475;29;121853;-92
2021/12/11 10:26:28;;;;;;;63.25;37.13;;;;;;;8.56;61.50;100664.78;4764578;23;121402;-89
2021/12/11 10:29:01;;;;;;;66.85;38.67;;;;;;;8.61;62.26;100671.66;4773496;29;124908;-87
2021/12/11 10:31:33;;;;;;;62.72;36.58;;;;;;;8.61;62.38;100669.69;4750051;29;122806;-90
2021/12/11 10:34:02;;;;;;;60.65;35.47;;;;;;;8.69;62.25;100685.88;4765515;29;119673;-88
2021/12/11 10:36:35;;;;;;;61.75;35.03;;;;;;;8.54;62.30;100647.28;4764833;29;124244;-90
2021/12/11 10:39:06;;;;;;;59.30;35.75;;;;;;;8.80;62.09;100680.88;4779753;29;123196;-89
2021/12/11 10:41:32;;;;;;;60.20;35.78;;;;;;;8.55;62.17;100640.59;4782210;29;119821;-88
2021/12/11 10:44:12;;;;;;;60.97;34.22;;;;;;;8.95;62.43;100681.94;4773465;29;121460;-90
2021/12/11 10:46:42;;;;;;;54.75;33.97;;;;;;;8.97;62.30;100676.78;4758547;29;119501;-89
2021/12/11 10:49:10;;;;;;;56.17;31.83;;;;;;;9.01;61.88;100680.19;4775561;29;122258;-91
2021/12/11 10:51:44;;;;;;;52.30;30.90;;;;;;;9.01;62.30;100679.44;4752329;29;123201;-91
2021/12/11 10:54:10;;;;;;;55.00;31.30;;;;;;;9.12;62.81;100694.28;4778282;29;119835;-89
2021/12/11 10:56:37;;;;;;;52.80;30.58;;;;;;;9.19;62.33;100691.31;4777632;29;123258;-90
2021/12/11 10:59:13;;;;;;;44.33;29.77;;;;;;;9.14;62.10;100678.19;5026629;27;121483;-93
2021/12/11 11:01:45;;;;;;;48.83;29.80;;;;;;;9.18;62.16;100687.06;4982818;27;120486;-92
2021/12/11 11:04:15;;;;;;;52.47;30.52;;;;;;;9.14;62.40;100680.94;5000371;27;122308;-93
2021/12/11 11:06:45;;;;;;;45.53;28.13;;;;;;;9.02;62.11;100659.09;5004001;27;121845;-93
2021/12/11 11:09:17;;;;;;;44.20;28.02;;;;;;;9.44;61.87;100717.13;4970595;27;120480;-90
2021/12/11 11:11:46;;;;;;;39.72;25.88;;;;;;;9.42;62.56;100703.13;4994665;27;122406;-93
2021/12/11 11:14:13;;;;;;;42.58;26.17;;;;;;;9.54;61.94;100713.28;4995020;27;122749;-89
2021/12/11 11:16:44;;;;;;;43.45;26.65;;;;;;;9.58;61.76;100718.63;4996635;27;120725;-86
2021/12/11 11:19:10;;;;;;;37.28;24.50;;;;;;;9.43;61.92;100696.44;4982562;27;123002;-88
2021/12/11 11:21:41;;;;;;;39.50;25.55;;;;;;;9.40;61.57;100687.13;4978604;27;120115;-88
2021/12/11 11:24:11;;;;;;;44.30;26.52;;;;;;;9.60;61.37;100716.22;4981306;27;125457;-88
2021/12/11 11:26:43;;;;;;;41.25;26.58;;;;;;;9.66;61.58;100717.94;4952889;27;122222;-89
2021/12/11 11:29:14;;;;;;;38.53;24.88;;;;;;;9.66;61.67;100712.47;4995512;27;119861;-86
2021/12/11 11:31:43;;;;;;;40.33;25.50;;;;;;;9.63;61.58;100720.81;4980064;27;122499;-90
2021/12/11 11:34:12;;;;;;;38.88;25.08;;;;;;;9.27;61.60;100674.69;4981587;27;123195;-86
2021/12/11 11:36:38;;;;;;;40.17;25.70;;;;;;;9.66;61.81;100726.16;4963182;27;120967;-86
2021/12/11 11:39:09;;;;;;;39.22;24.10;;;;;;;9.47;62.00;100703.34;4979742;27;122385;-90
2021/12/11 11:41:43;;;;;;;38.15;23.83;;;;;;;9.63;61.99;100723.53;4983340;27;123469;-94
2021/12/11 11:44:13;;;;;;;33.05;23.23;;;;;;;9.59;62.21;100712.72;4996899;27;119543;-90
2021/12/11 11:46:40;;;;;;;38.03;23.58;;;;;;;9.71;62.04;100727.59;4998230;27;121760;-89